New Listings | Alphabetical Listings | Market Rank Listings | PPM Schedule | Arbitrends Schedule | Menu

Nielsen Audio Ratings

Market Rank: 1-50 | 51-100 | 101-150 | 151-200 | 201-250 | 251-300

Rank Market Posted Survey 12+
Population
33 Austin TX 02-23-18 PPM 1,786,400
47 Greensboro-Winston-Salem-High Point NC 02-23-18 PPM 1,286,200
52 Hartford-New Britain CT 02-23-18 PPM 1,076,300
39 Indianapolis IN 02-23-18 PPM 1,542,800
46 Jacksonville FL 02-23-18 PPM 1,296,100
51 Memphis TN 02-23-18 PPM 1,118,500
41 Milwaukee-Racine WI 02-23-18 PPM 1,498,300
43 Nashville TN 02-23-18 PPM 1,465,700
45 Norfolk-VA Beach-Newport News VA 02-23-18 PPM 1,408,300
44 Providence RI 02-23-18 PPM 1,412,300
38 Raleigh-Durham NC 02-23-18 PPM 1,582,600
48 West Palm Beach FL 02-23-18 PPM 1,285,700
24 Charlotte-Gastonia NC 02-22-18 PPM 2,304,300
32 Cincinnati OH 02-22-18 PPM 1,830,200
34 Cleveland OH 02-22-18 PPM 1,769,200
36 Columbus OH 02-22-18 PPM 1,662,500
35 Kansas City MO 02-22-18 PPM 1,739,300
30 Las Vegas NV 02-22-18 PPM 1,878,600
31 Orlando FL 02-22-18 PPM 1,859,100
28 Pittsburgh PA 02-22-18 PPM 1,987,200
22 Portland OR 02-22-18 PPM 2,354,100
27 Sacramento CA 02-22-18 PPM 2,012,900
29 Salt Lake City UT 02-22-18 PPM 1,930,900
26 San Antonio TX 02-22-18 PPM 2,084,000
21 Baltimore MD 02-21-18 PPM 2,406,400
10 Boston MA 02-21-18 PPM 4,294,800
18 Denver-Boulder CO 02-21-18 PPM 2,720,200
13 Detroit MI 02-21-18 PPM 3,813,700
11 Miami-Fort Lauderdale FL 02-21-18 PPM 4,070,400

15 Minneapolis-St. Paul MN 02-21-18 PPM 2,957,900
14 Phoenix AZ 02-21-18 PPM 3,662,700
17 San Diego CA 02-21-18 PPM 2,853,400
12 Seattle-Tacoma WA 02-21-18 PPM 3,863,400
23 St. Louis MO 02-21-18 PPM 2,341,600
19 Tampa-St. Petersburg FL 02-21-18 PPM 2,704,100
7 Washington DC 02-21-18 PPM 4,921,100
8 Atlanta GA 02-20-18 PPM 4,823,200
3 Chicago IL 02-20-18 PPM 7,945,800
5 Dallas-Ft. Worth TX 02-20-18 PPM 6,063,100
6 Houston-Galveston TX 02-20-18 PPM 5,822,000
2 Los Angeles CA 02-20-18 PPM 11,465,400
42 Middlesex-Somerset-Union 02-20-18 PPM 1,484,800
20 Nassau-Suffolk NY 02-20-18 PPM 2,470,900
1 New York NY 02-20-18 PPM 16,285,500
9 Philadelphia PA 02-20-18 PPM 4,593,500
25 Riverside-San Bernardino CA 02-20-18 PPM 2,092,600
4 San Francisco CA 02-20-18 PPM 6,710,000
37 San Jose CA 02-20-18 PPM 1,654,900
255 Bismarck ND 01-31-18 2A 108,600
264 Bluefield WV 01-31-18 2A 88,000
252 Harrisonburg VA 01-31-18 2A 117,700
267 Jackson TN 01-31-18 2A 82,400
253 Rapid City SD 01-31-18 2A 116,800
258 San Angelo TX 01-31-18 2A 101,600
259 Sioux City IA 01-31-18 2A 101,300
188 Sioux Falls SD 01-31-18 2A 221,000
251 Wichita Falls TX 01-31-18 2A 119,400
234 Abilene TX 01-30-18 2A 144,700
237 Billings MT 01-30-18 2A 135,700

229 Columbia MO 01-30-18 2A 154,500
235 Eau Claire WI 01-30-18 2A 144,300
250 Grand Island-Kearney-Hastings NE 01-30-18 2A 119,700
241 Grand Junction CO 01-30-18 2A 129,000
231 Joplin MO 01-30-18 2A 149,600
220 La Crosse WI 01-30-18 2A 167,000
222 Lafayette IN 01-30-18 2S 164,400
240 Monroe LA 01-30-18 2A 131,100
224 Panama City FL 01-30-18 2A 159,300
245 Parkersburg-Marietta WV 01-30-18 2A 126,000
221 Rochester MN 01-30-18 2A 164,600
246 Wheeling WV 01-30-18 2S 124,000
199 Bend OR 01-29-18 2A 202,000
206 Cedar Rapids IA 01-29-18 2S 190,000
203 Chico CA 01-29-18 2A 198,100
212 Duluth-Superior MN-WI 01-29-18 2S 179,600
197 Fargo-Moorhead ND-MN 01-29-18 2S 206,000
214 Florence SC 01-29-18 2A 174,700
268 Grand Forks ND 01-29-18 2A 79,600
190 Laredo TX 01-29-18 2A 215,500
238 Waterloo-Cedar Falls IA 01-29-18 2A 134,800
210 Winchester VA 01-29-18 2A 180,000
198 Yakima WA 01-29-18 2A 203,000
170 Amarillo TX 01-26-18 2A 256,500
186 Bryan-College Station TX 01-26-18 2A 225,700
195 Cape Cod MA 01-26-18 2A 208,700
189 Columbus GA 01-26-18 2S 219,200
191 Frederick MD 01-26-18 2C 213,900
168 Lubbock TX 01-26-18 2S 258,900
164 Odessa-Midland TX 01-26-18 2A 266,200

230 Redding CA 01-26-18 2A 154,100
260 Sheboygan WI 01-26-18 2A 99,400
213 Terre Haute IN 01-26-18 2S 175,300
159 Traverse City-Petoskey-Cadillac, MI 01-26-18 2A 298,100
179 Tri-Cities WA 01-26-18 2A 235,400
193 Waco TX 01-26-18 2A 211,500
174 Anchorage AK 01-25-18 2S 248,200
194 Binghamton NY 01-25-18 2S 211,200
173 Bowling Green KY 01-25-18 2C 248,700
178 Erie PA 01-25-18 2S 235,800
147 Eugene-Springfield OR 01-25-18 2S 329,800
163 Evansville IN 01-25-18 2S 269,900
166 Huntington-Ashland WV 01-25-18 2S 263,900
130 Macon GA 01-25-18 2S 372,400
175 Morgantown-Clarksburg-Fairmont WV 01-25-18 2A 245,700
160 Rockford IL 01-25-18 2S 286,500
162 Tallahassee FL 01-25-18 2S 284,800
249 Valdosta GA 01-25-18 2A 121,100
177 Wausau-Stevens Point WI (Central Wiscons 01-25-18 2A 240,100
239 Albany GA 01-24-18 2A 131,200
150 Ann Arbor MI 01-24-18 2A 324,000
145 Beaumont-Port Arthur TX 01-24-18 2A 333,100
233 Bloomington IL 01-24-18 2S 147,300
263 Brunswick GA 01-24-18 2A 88,700
192 Dothan AL 01-24-18 2A 211,700
223 Hilton Head SC 01-24-18 2A 163,400
141 Killeen-Temple TX 01-24-18 2A 343,200
242 LaSalle-Peru IL 01-24-18 2A 128,300
217 Lake Charles LA 01-24-18 2A 169,900
156 Montgomery AL 01-24-18 2S 307,500

182 New Bedford-Fall River MA 01-24-18 2C 232,500
158 Peoria IL 01-24-18 2S 301,200
155 Quad Cities IL 01-24-18 2S 310,500
134 Salisbury-Ocean City MD 01-24-18 2S 355,000
146 Savannah GA 01-24-18 2S 330,400
135 Springfield MO 01-24-18 2S 354,000
137 Appleton-Oshkosh WI 01-23-18 2S 346,900
111 Corpus Christi TX 01-23-18 2S 479,200
123 Fayetteville (North West Arkansas) AR 01-23-18 2A 430,200
129 Fayetteville NC 01-23-18 2S 381,000
138 Flint MI 01-23-18 2S 345,600
187 Green Bay WI 01-23-18 2S 221,300
128 Lansing-East Lansing MI 01-23-18 2S 414,600
133 Reading PA 01-23-18 2A 355,400
97 Reno NV 01-23-18 2S 555,800
149 Saginaw-Bay City-Midland MI 01-23-18 2A 326,800
242 Texarkana TX-AR 01-23-18 2A 128,300
142 Tyler-Longview TX 01-23-18 2S 337,600
131 Youngstown-Warren OH 01-23-18 2S 372,100
126 Bridgeport CT 01-22-18 2S 420,500
266 Cheyenne WY 01-22-18 2A 83,900
108 Fort Collins-Greeley CO 01-22-18 2A 490,200
117 Modesto CA 01-22-18 2S 453,000
121 Morristown NJ 01-22-18 2C 433,900
124 New Haven CT 01-22-18 2S 428,900
120 Oxnard-Ventura CA 01-22-18 2S 439,200
132 Palm Springs CA 01-22-18 2S 365,400
172 San Luis Obispo CA 01-22-18 2A 250,400
209 Santa Barbara CA 01-22-18 2A 183,400
202 Santa Maria-Lompoc CA 01-22-18 2A 199,600

140 Shreveport LA 01-22-18 4S 344,200
184 South Bend IN 01-22-18 2S 228,000
114 Victor Valley 01-22-18 2S 468,900
154 Atlantic City NJ 01-19-18 2S 313,600
109 Augusta GA 01-19-18 2S 484,500
244 Florence-Muscle Shoals AL 01-19-18 2A 127,100
115 Fort Wayne IN 01-19-18 2S 457,800
127 Jackson MS 01-19-18 4S 419,300
103 Lexington-Fayette KY 01-19-18 2S 518,000
218 Muncie-Marion IN 01-19-18 2A 168,100
119 Roanoke-Lynchburg VA 01-19-18 2S 446,800
247 Sussex NJ 01-19-18 2A 123,900
152 Trenton NJ 01-19-18 2S 319,800
118 Worcester MA 01-19-18 2S 449,900
95 Boise ID 01-18-18 2S 562,800
88 Chattanooga TN 01-18-18 4S 596,000
92 Daytona Beach FL 01-18-18 2S 578,700
98 Fort Pierce-Stuart FL 01-18-18 2S 554,800
183 Fort Walton Beach FL 01-18-18 2A 231,700
106 Huntsville AL 01-18-18 4S 493,200
91 Lakeland-Winter Haven FL 01-18-18 2S 585,000
102 Melbourne-Titusville-Cocoa FL 01-18-18 2S 523,700
125 Pensacola FL 01-18-18 2S 426,700
236 Pueblo CO 01-18-18 2S 142,400
205 Salina-Manhattan KS 01-18-18 2A 196,000
204 Topeka KS 01-18-18 2S 196,300
248 Twin Falls-Sun Valley, ID 01-18-18 2A 123,400
89 Colorado Springs CO 01-17-18 4S 589,600
87 Gainesville-Ocala FL 01-17-18 2S 598,500
265 Hot Springs AR 01-17-18 2A 84,700
101 Madison WI 01-17-18 4S 535,500
100 Mobile AL 01-17-18 4S 535,800
81 Stockton 01-17-18 2S 616,400
104 Toledo OH 01-17-18 4S 515,100
105 Wichita KS 01-17-18 4S 510,900
139 Canton OH 01-16-18 2S 345,400
84 Columbia SC 01-16-18 4S 605,300
70 Des Moines IA 01-16-18 4S 733,900
90 Greenville-New Bern NC 01-16-18 4S 587,000
167 Hagerstown-Chambersburg MD 01-16-18 2A 261,200
116 Lancaster PA 01-16-18 2S 456,700
165 Lincoln NE 01-16-18 2S 266,000
86 Little Rock AR 01-16-18 4S 600,200
85 Monterey-Salinas CA 01-16-18 4S 603,800
136 Myrtle Beach SC 01-16-18 2A 350,700
181 New London CT 01-16-18 2A 234,700
93 Spokane WA 01-16-18 4S 569,400
99 Springfield MA 01-16-18 4S 550,400
80 Wilmington DE 01-16-18 2S 623,200
83 Akron OH 01-12-18 4S 608,700

79 Bakersfield CA 01-12-18 4S 649,100
78 Charleston SC 01-12-18 4S 668,300
82 Harrisburg-Lebanon-Carlisle PA 01-12-18 4S 612,100
180 Merced CA 01-12-18 2A 235,300
74 Omaha-Council Bluffs NE 01-12-18 4S 712,000
215 Sunbury-Selinsgrove-Lewisburg PA 01-12-18 2A 171,900
107 Visalia-Tulare-Hanford CA 01-12-18 2S 491,100
261 Williamsport PA 01-12-18 2A 99,200
112 York PA 01-12-18 4S 472,300
69 Albuquerque NM 01-11-18 4S 765,700
71 Allentown-Bethlehem PA 01-11-18 4S 728,100
254 Battle Creek MI 01-11-18 2A 114,100
201 Danbury CT 01-11-18 2A 200,200
76 El Paso TX 01-11-18 4S 689,100
57 Fort Myers-Naples-Marco Island FL 01-11-18 4S 984,300
67 Fresno CA 01-11-18 4S 803,600
161 Ft. Smith AR 01-11-18 2A 284,900
63 Honolulu HI 01-11-18 4S 847,900
113 Johnson City-Kingsport TN 01-11-18 4S 469,900
185 Kalamazoo MI 01-11-18 2S 226,200
72 Knoxville TN 01-11-18 4S 724,800
228 Lima OH 01-11-18 2A 154,900
56 McAllen-Brownsville TX 01-11-18 2S 1,017,400
232 Muskegon MI 01-11-18 2A 148,000
73 Sarasota-Bradenton FL 01-11-18 2S 721,800
151 Stamford-Norwalk CT 01-11-18 2A 322,400
77 Wilkes Barre-Scranton PA 01-11-18 4S 687,900
257 Augusta-Waterville ME 01-10-18 2A 105,600
219 Bangor ME 01-10-18 2S 168,000
148 Burlington-Plattsburgh VT-NY 01-10-18 2S 329,400

176 Concord (Lakes Region) 01-10-18 2S 241,400
64 Dayton OH 01-10-18 4S 835,500
68 Grand Rapids MI 01-10-18 4S 785,600
40 Hudson Valley 01-10-18 2S 1,517,300
225 Lebanon-Hanover-White River Junction, NH 01-10-18 2A 157,800
200 Manchester NH 01-10-18 2S 201,800
256 Montpelier-Barre-St. Johnsbury VT 01-10-18 2S 106,500
153 Newburgh-Middletown NY 01-10-18 2A 319,700
96 Portland ME 01-10-18 2S 560,100
122 Portsmouth-Dover NH 01-10-18 2S 432,300
169 Poughkeepsie NY 01-10-18 2A 258,600
62 Tucson AZ 01-10-18 4S 880,100
65 Tulsa OK 01-10-18 4S 822,700
171 Utica-Rome NY 01-10-18 2S 251,600
66 Albany-Schenectady-Troy NY 01-09-18 4S 813,000
157 Asheville NC 01-09-18 2S 302,300
208 Charlottesville VA 01-09-18 2A 187,700
143 Fredericksburg VA 01-09-18 2S 337,300
94 Syracuse 01-09-18 4S 564,900
211 Tuscaloosa AL 01-09-18 2A 179,900
144 Biloxi-Gulfport-Pascagoula MS 01-08-18 2S 333,900
61 Birmingham AL 01-08-18 4S 921,700
58 Buffalo-Niagara Falls NY 01-08-18 4S 983,500
59 Greenville-Spartanburg SC 01-08-18 4S 971,300
110 Lafayette LA 01-08-18 2S 483,300
215 Laurel-Hattiesburg MS 01-08-18 2A 171,900
54 Monmouth-Ocean NJ 01-08-18 2S 1,044,100
53 Richmond VA 01-08-18 4S 1,047,400
60 Rochester NY 01-08-18 4S 962,700
75 Baton Rouge LA 01-05-18 4S 702,200

55 Louisville KY 01-05-18 4S 1,041,300
49 New Orleans LA 01-05-18 4S 1,263,000
50 Oklahoma City OK 01-05-18 4S 1,261,000
16 Puerto Rico 10-10-17 4S 2,922,100
196 Charleston WV 08-04-17 2S 208,200
227 Elmira-Corning NY 07-20-17 2A 156,000
207 Medford-Ashland OR 01-25-17 2A 189,900
226 Olean NY 09-15-15 2A 157,300
262 Watertown NY 09-15-15 2A 91,400

Survey Key:
PPM - Portable People Meter
4S - Diary Standard Continuous Measurement
2S - Diary Standard Measurement
2C - Diary Condensed Measurement
2A - Diary 2-book Average

Ratings profiles are Copyright © 2018 Nielsen Audio. May not be quoted or reproduced without the prior written permission of Nielsen Audio.

Return to Menu
Copyright © 1989-2018 RADIO ONLINE ®

Sponsored Links
Radio Station Data For Less
Radio station data for all of the rated markets for $298.
Radio Station Data For Less
Radio station data for all of the rated markets for $298.